createdAt,value
2022-12-25T00:01:16.091Z,99504.31
2022-12-25T00:03:45.108Z,99506.94
2022-12-25T00:06:13.825Z,99507.88
2022-12-25T00:08:42.756Z,99515.72
2022-12-25T00:11:13.963Z,99512.28
2022-12-25T00:13:41.607Z,99518.28
2022-12-25T00:16:18.736Z,99519.94
2022-12-25T00:18:47.374Z,99516.56
2022-12-25T00:21:18.287Z,99522.81
2022-12-25T00:23:45.972Z,99524.38
2022-12-25T00:26:15.839Z,99528.97
2022-12-25T00:28:44.933Z,99535.84
2022-12-25T00:31:15.072Z,99536.63
2022-12-25T00:33:44.639Z,99533.34
2022-12-25T00:36:13.213Z,99535.03
2022-12-25T00:38:43.460Z,99538.63
2022-12-25T00:41:13.283Z,99539.38
2022-12-25T00:43:42.118Z,99538.53
2022-12-25T00:46:13.320Z,99542.97
2022-12-25T00:48:40.781Z,99553.38
2022-12-25T00:51:11.242Z,99550.53
2022-12-25T00:53:38.192Z,99555.94
2022-12-25T00:56:10.264Z,99563.56
2022-12-25T00:58:37.270Z,99558.41
2022-12-25T01:01:04.519Z,99558.16
2022-12-25T01:03:31.803Z,99556.47
2022-12-25T01:06:05.450Z,99566.19
2022-12-25T01:08:35.725Z,99565.50
2022-12-25T01:11:06.683Z,99566.09
2022-12-25T01:13:36.462Z,99567.06
2022-12-25T01:16:11.110Z,99566.34
2022-12-25T01:18:38.651Z,99575.03
2022-12-25T01:21:11.975Z,99576.91
2022-12-25T01:23:39.331Z,99575.31
2022-12-25T01:26:10.694Z,99572.63
2022-12-25T01:28:38.839Z,99571.56
2022-12-25T01:31:10.128Z,99568.25
2022-12-25T01:33:37.471Z,99579.78
2022-12-25T01:36:06.060Z,99571.25
2022-12-25T01:38:33.028Z,99572.03
2022-12-25T01:40:59.917Z,99566.78
2022-12-25T01:43:31.170Z,99566.84
2022-12-25T01:45:58.604Z,99566.06
2022-12-25T01:48:32.931Z,99566.88
2022-12-25T01:51:06.216Z,99570.47
2022-12-25T01:53:33.476Z,99569.53
2022-12-25T01:56:06.696Z,99573.09
2022-12-25T01:58:34.024Z,99565.38
2022-12-25T02:01:09.739Z,99564.38
2022-12-25T02:03:37.070Z,99570.50
2022-12-25T02:06:05.576Z,99574.03
2022-12-25T02:08:34.080Z,99583.63
2022-12-25T02:11:00.943Z,99583.50
2022-12-25T02:13:30.652Z,99584.28
2022-12-25T02:16:00.846Z,99589.44
2022-12-25T02:18:31.003Z,99587.69
2022-12-25T02:21:20.139Z,99591.22
2022-12-25T02:24:12.012Z,99593.00
2022-12-25T02:27:03.357Z,99587.97
2022-12-25T02:29:41.133Z,99598.19
2022-12-25T02:32:15.865Z,99602.53
2022-12-25T02:35:09.361Z,99600.09
2022-12-25T02:37:42.727Z,99600.13
2022-12-25T02:40:22.953Z,99600.88
2022-12-25T02:43:23.340Z,99605.19
2022-12-25T02:46:14.698Z,99610.50
2022-12-25T02:49:04.836Z,99608.81
2022-12-25T02:51:56.003Z,99613.97
2022-12-25T02:54:51.207Z,99609.63
2022-12-25T02:57:41.209Z,99620.13
2022-12-25T03:00:28.059Z,99613.13
2022-12-25T03:03:14.176Z,99623.59
2022-12-25T03:06:02.334Z,99628.94
2022-12-25T03:08:40.119Z,99633.22
2022-12-25T03:11:28.405Z,99636.72
2022-12-25T03:14:20.719Z,99633.28
2022-12-25T03:16:55.437Z,99639.38
2022-12-25T03:19:45.971Z,99643.88
2022-12-25T03:22:37.948Z,99638.66
2022-12-25T03:25:24.133Z,99636.72
2022-12-25T03:27:54.403Z,99637.75
2022-12-25T03:30:42.654Z,99646.56
2022-12-25T03:33:44.473Z,99650.03
2022-12-25T03:36:28.764Z,99653.56
2022-12-25T03:39:57.217Z,99647.44
2022-12-25T03:43:02.521Z,99646.66
2022-12-25T03:46:01.128Z,99658.00
2022-12-25T03:48:53.008Z,99654.41
2022-12-25T03:51:43.471Z,99656.16
2022-12-25T03:54:31.515Z,99655.44
2022-12-25T03:57:17.133Z,99660.59
2022-12-25T04:00:02.775Z,99662.44
2022-12-25T04:02:55.428Z,99668.50
2022-12-25T04:05:41.304Z,99668.44
2022-12-25T04:08:27.980Z,99672.91
2022-12-25T04:11:13.559Z,99670.25
2022-12-25T04:13:58.860Z,99674.66
2022-12-25T04:16:44.206Z,99675.47
2022-12-25T04:19:29.886Z,99681.59
2022-12-25T04:22:15.408Z,99683.19
2022-12-25T04:25:01.305Z,99678.84
2022-12-25T04:27:46.453Z,99683.09
2022-12-25T04:30:31.995Z,99691.06
2022-12-25T04:33:18.305Z,99690.16
2022-12-25T04:36:07.646Z,99687.59
2022-12-25T04:38:34.930Z,99695.38
2022-12-25T04:41:03.627Z,99699.75
2022-12-25T04:43:30.647Z,99695.53
2022-12-25T04:45:59.999Z,99696.34
2022-12-25T04:48:28.956Z,99694.59
2022-12-25T04:50:57.074Z,99696.19
2022-12-25T04:53:24.187Z,99694.47
2022-12-25T04:55:51.236Z,99705.97
2022-12-25T04:58:18.299Z,99699.84
2022-12-25T05:00:45.313Z,99704.97
2022-12-25T05:03:12.688Z,99711.00
2022-12-25T05:05:41.088Z,99701.38
2022-12-25T05:08:08.134Z,99706.69
2022-12-25T05:10:35.228Z,99719.81
2022-12-25T05:13:02.546Z,99721.53
2022-12-25T05:15:29.503Z,99727.50
2022-12-25T05:17:56.456Z,99731.09
2022-12-25T05:20:23.532Z,99723.22
2022-12-25T05:22:50.591Z,99723.16
2022-12-25T05:25:17.537Z,99727.50
2022-12-25T05:27:48.734Z,99730.19
2022-12-25T05:30:18.998Z,99739.72
2022-12-25T05:32:47.713Z,99738.91
2022-12-25T05:35:15.255Z,99738.97
2022-12-25T05:37:42.290Z,99742.44
2022-12-25T05:40:09.845Z,99746.00
2022-12-25T05:42:36.703Z,99745.22
2022-12-25T05:45:03.882Z,99754.75
2022-12-25T05:47:31.050Z,99764.16
2022-12-25T05:49:58.024Z,99762.56
2022-12-25T05:52:25.016Z,99770.41
2022-12-25T05:54:52.019Z,99768.69
2022-12-25T05:57:19.178Z,99768.66
2022-12-25T05:59:46.281Z,99766.06
2022-12-25T06:02:13.575Z,99776.53
2022-12-25T06:04:40.834Z,99786.09
2022-12-25T06:07:07.939Z,99785.22
2022-12-25T06:09:35.053Z,99788.78
2022-12-25T06:12:02.204Z,99790.59
2022-12-25T06:14:29.532Z,99799.25
2022-12-25T06:16:56.613Z,99804.44
2022-12-25T06:19:24.314Z,99808.78
2022-12-25T06:21:55.754Z,99814.00
2022-12-25T06:24:24.111Z,99826.19
2022-12-25T06:26:51.612Z,99833.19
2022-12-25T06:29:18.802Z,99834.13
2022-12-25T06:31:46.451Z,99844.47
2022-12-25T06:34:16.721Z,99842.75
2022-12-25T06:36:43.953Z,99840.09
2022-12-25T06:39:11.112Z,99846.13
2022-12-25T06:41:38.356Z,99847.97
2022-12-25T06:44:05.733Z,99849.75
2022-12-25T06:46:32.919Z,99845.41
2022-12-25T06:49:00.521Z,99848.84
2022-12-25T06:51:32.203Z,99854.84
2022-12-25T06:54:04.025Z,99862.72
2022-12-25T06:56:33.408Z,99872.34
2022-12-25T06:59:05.774Z,99871.56
2022-12-25T07:01:39.991Z,99869.84
2022-12-25T07:04:14.422Z,99862.88
2022-12-25T07:06:41.365Z,99874.25
2022-12-25T07:09:08.339Z,99876.03
2022-12-25T07:11:35.796Z,99874.22
2022-12-25T07:14:03.198Z,99871.59
2022-12-25T07:16:30.606Z,99865.56
2022-12-25T07:19:01.346Z,99863.75
2022-12-25T07:21:28.721Z,99871.50
2022-12-25T07:23:56.303Z,99877.59
2022-12-25T07:26:23.862Z,99888.03
2022-12-25T07:28:51.478Z,99890.69
2022-12-25T07:31:19.656Z,99895.88
2022-12-25T07:33:47.747Z,99892.31
2022-12-25T07:36:15.888Z,99894.03
2022-12-25T07:38:44.476Z,99895.03
2022-12-25T07:41:13.414Z,99891.47
2022-12-25T07:43:42.178Z,99907.97
2022-12-25T07:46:11.493Z,99905.34
2022-12-25T07:48:38.727Z,99909.69
2022-12-25T07:51:10.937Z,99907.97
2022-12-25T07:53:40.138Z,99907.97
2022-12-25T07:56:11.386Z,99908.88
2022-12-25T07:58:39.718Z,99907.94
2022-12-25T08:01:20.044Z,99908.81
2022-12-25T08:03:56.190Z,99911.38
2022-12-25T08:06:27.141Z,99918.41
2022-12-25T08:08:54.205Z,99917.53
2022-12-25T08:11:21.561Z,99929.69
2022-12-25T08:13:48.451Z,99934.03
2022-12-25T08:16:16.004Z,99925.38
2022-12-25T08:18:43.903Z,99928.03
2022-12-25T08:21:16.413Z,99932.34
2022-12-25T08:23:45.086Z,99929.72
2022-12-25T08:26:16.714Z,99931.44
2022-12-25T08:28:45.276Z,99929.56
2022-12-25T08:31:21.366Z,99930.44
2022-12-25T08:33:50.146Z,99930.47
2022-12-25T08:36:18.117Z,99937.34
2022-12-25T08:38:45.960Z,99945.22
2022-12-25T08:41:13.736Z,99943.47
2022-12-25T08:43:41.067Z,99953.06
2022-12-25T08:46:11.484Z,99958.25
2022-12-25T08:48:38.936Z,99953.00
2022-12-25T08:51:15.208Z,99957.31
2022-12-25T08:53:55.189Z,99955.63
2022-12-25T08:56:27.729Z,99950.44
2022-12-25T08:59:03.386Z,99959.09
2022-12-25T09:01:37.938Z,99961.69
2022-12-25T09:04:09.542Z,99966.13
2022-12-25T09:06:58.752Z,99973.03
2022-12-25T09:09:33.304Z,99971.38
2022-12-25T09:12:00.043Z,99974.81
2022-12-25T09:14:45.848Z,99970.41
2022-12-25T09:17:18.835Z,99966.06
2022-12-25T09:19:51.551Z,99966.94
2022-12-25T09:22:20.074Z,99962.59
2022-12-25T09:24:47.220Z,99959.09
2022-12-25T09:27:25.144Z,99966.00
2022-12-25T09:29:52.061Z,99966.06
2022-12-25T09:32:19.254Z,99966.88
2022-12-25T09:34:46.632Z,99977.34
2022-12-25T09:37:13.718Z,99979.06
2022-12-25T09:39:46.081Z,99985.25
2022-12-25T09:42:25.721Z,99987.00
2022-12-25T09:45:01.469Z,99999.13
2022-12-25T09:47:35.201Z,99993.81
2022-12-25T09:50:17.321Z,99993.91
2022-12-25T09:52:53.538Z,100000.03
2022-12-25T09:55:26.224Z,100010.41
2022-12-25T09:58:11.877Z,100008.72
2022-12-25T10:00:48.038Z,100002.66
2022-12-25T10:03:43.589Z,99990.47
2022-12-25T10:06:28.002Z,99993.94
2022-12-25T10:09:24.932Z,99996.44
2022-12-25T10:11:59.942Z,99996.47
2022-12-25T10:14:39.133Z,100002.44
2022-12-25T10:17:46.964Z,100000.84
2022-12-25T10:20:37.645Z,100005.13
2022-12-25T10:25:56.946Z,100012.09
2022-12-25T10:28:32.787Z,100022.56
2022-12-25T10:31:06.387Z,100031.19
2022-12-25T10:33:33.871Z,100033.84
2022-12-25T10:36:00.887Z,100037.31
2022-12-25T10:38:28.053Z,100035.38
2022-12-25T10:41:35.570Z,100036.22
2022-12-25T10:44:14.020Z,100033.66
2022-12-25T10:46:49.465Z,100041.50
2022-12-25T10:49:19.834Z,100042.34
2022-12-25T10:51:46.668Z,100034.44
2022-12-25T10:54:21.888Z,100038.56
2022-12-25T10:57:01.284Z,100037.72
2022-12-25T10:59:34.425Z,100038.44
2022-12-25T11:02:49.870Z,100030.59
2022-12-25T11:05:28.705Z,100031.56
2022-12-25T11:11:19.246Z,100034.22
2022-12-25T11:13:56.441Z,100037.84
2022-12-25T11:16:38.145Z,100034.41
2022-12-25T11:19:24.911Z,100043.03
2022-12-25T11:21:54.581Z,100041.34
2022-12-25T11:24:25.198Z,100045.69
2022-12-25T11:26:54.577Z,100042.28
2022-12-25T11:30:01.980Z,100050.13
2022-12-25T11:32:43.982Z,100053.59
2022-12-25T11:35:14.932Z,100053.63
2022-12-25T11:37:46.438Z,100052.72
2022-12-25T11:40:16.090Z,100057.00
2022-12-25T11:42:56.021Z,100051.59
2022-12-25T11:45:33.747Z,100054.50
2022-12-25T11:48:11.795Z,100058.84
2022-12-25T11:50:44.034Z,100069.31
2022-12-25T11:53:25.468Z,100073.78
2022-12-25T11:56:16.307Z,100074.72
2022-12-25T11:58:51.014Z,100072.88
2022-12-25T12:01:55.233Z,100079.03
2022-12-25T12:04:35.400Z,100087.72
2022-12-25T12:07:13.931Z,100084.25
2022-12-25T12:10:16.490Z,100097.34
2022-12-25T12:13:18.978Z,100101.72
2022-12-25T12:15:50.674Z,100107.88
2022-12-25T12:18:27.420Z,100112.28
2022-12-25T12:21:08.366Z,100120.91
2022-12-25T12:24:04.400Z,100120.03
2022-12-25T12:26:38.070Z,100125.31
2022-12-25T12:29:08.536Z,100123.41
2022-12-25T12:31:42.053Z,100133.97
2022-12-25T12:34:29.695Z,100128.78
2022-12-25T12:37:06.620Z,100127.09
2022-12-25T12:39:39.717Z,100134.09
2022-12-25T12:42:22.633Z,100141.84
2022-12-25T12:44:50.635Z,100145.34
2022-12-25T12:47:34.524Z,100148.81
2022-12-25T12:50:02.037Z,100150.50
2022-12-25T12:52:38.335Z,100147.00
2022-12-25T12:55:09.843Z,100153.94
2022-12-25T12:57:40.515Z,100153.09
2022-12-25T13:00:19.864Z,100156.63
2022-12-25T13:02:56.119Z,100151.41
2022-12-25T13:05:34.133Z,100157.53
2022-12-25T13:08:31.782Z,100157.50
2022-12-25T13:11:23.320Z,100155.81
2022-12-25T13:13:54.102Z,100156.59
2022-12-25T13:16:33.771Z,100161.06
2022-12-25T13:19:06.329Z,100159.31
2022-12-25T13:21:36.046Z,100166.28
2022-12-25T13:24:09.064Z,100169.72
2022-12-25T13:26:36.535Z,100175.91
2022-12-25T13:29:09.612Z,100178.41
2022-12-25T13:31:41.384Z,100186.25
2022-12-25T13:34:28.742Z,100181.84
2022-12-25T13:37:00.571Z,100194.94
2022-12-25T13:39:30.555Z,100201.91
2022-12-25T13:42:11.370Z,100205.34
2022-12-25T13:44:44.368Z,100203.59
2022-12-25T13:47:19.103Z,100205.38
2022-12-25T13:49:46.722Z,100209.84
2022-12-25T13:52:22.808Z,100216.75
2022-12-25T13:55:18.765Z,100214.97
2022-12-25T13:58:01.546Z,100218.41
2022-12-25T14:00:31.415Z,100219.25
2022-12-25T14:02:59.142Z,100223.66
2022-12-25T14:05:41.648Z,100232.41
2022-12-25T14:08:25.074Z,100231.59
2022-12-25T14:10:56.108Z,100237.69
2022-12-25T14:13:27.602Z,100236.75
2022-12-25T14:16:01.678Z,100236.81
2022-12-25T14:18:31.257Z,100242.06
2022-12-25T14:21:01.246Z,100240.38
2022-12-25T14:24:48.970Z,100240.38
2022-12-25T14:27:34.283Z,100242.09
2022-12-25T14:30:01.056Z,100246.47
2022-12-25T14:32:30.810Z,100243.84
2022-12-25T14:35:01.723Z,100246.47
2022-12-25T14:37:31.772Z,100247.34
2022-12-25T14:40:05.223Z,100252.53
2022-12-25T14:42:35.156Z,100254.28
2022-12-25T14:45:22.595Z,100262.97
2022-12-25T14:48:18.517Z,100264.72
2022-12-25T14:51:02.562Z,100263.88
2022-12-25T14:53:55.325Z,100267.34
2022-12-25T14:56:24.059Z,100270.81
2022-12-25T14:58:56.832Z,100276.03
2022-12-25T15:01:38.973Z,100273.44
2022-12-25T15:04:15.033Z,100274.28
2022-12-25T15:06:52.111Z,100281.25
2022-12-25T15:09:19.188Z,100282.09
2022-12-25T15:11:51.396Z,100275.13
2022-12-25T15:14:18.691Z,100278.63
2022-12-25T15:16:52.131Z,100288.25
2022-12-25T15:19:25.962Z,100299.56
2022-12-25T15:21:56.195Z,100303.88
2022-12-25T15:24:23.124Z,100316.94
2022-12-25T15:26:49.899Z,100316.06
2022-12-25T15:29:23.690Z,100306.47
2022-12-25T15:32:03.860Z,100318.69
2022-12-25T15:34:30.867Z,100323.00
2022-12-25T15:36:57.588Z,100311.69
2022-12-25T15:39:24.253Z,100308.22
2022-12-25T15:42:09.257Z,100298.69
2022-12-25T15:44:36.031Z,100302.16
2022-12-25T15:47:02.873Z,100305.66
2022-12-25T15:49:29.746Z,100307.44
2022-12-25T15:51:56.684Z,100306.53
2022-12-25T15:54:23.631Z,100304.78
2022-12-25T15:56:54.383Z,100307.44
2022-12-25T15:59:22.290Z,100305.69
2022-12-25T16:01:54.476Z,100311.75
2022-12-25T16:04:22.608Z,100319.59
2022-12-25T16:06:50.283Z,100318.75
2022-12-25T16:09:22.718Z,100319.59
2022-12-25T16:11:50.137Z,100319.59
2022-12-25T16:14:16.939Z,100321.31
2022-12-25T16:16:43.884Z,100327.44
2022-12-25T16:19:11.654Z,100327.44
2022-12-25T16:21:42.964Z,100330.91
2022-12-25T16:24:09.719Z,100326.53
2022-12-25T16:26:36.665Z,100328.28
2022-12-25T16:29:07.282Z,100326.53
2022-12-25T16:31:35.562Z,100333.50
2022-12-25T16:34:02.881Z,100332.63
2022-12-25T16:36:29.948Z,100335.28
2022-12-25T16:38:56.648Z,100335.28
2022-12-25T16:41:23.707Z,100333.53
2022-12-25T16:43:50.413Z,100331.81
2022-12-25T16:46:20.656Z,100331.78
2022-12-25T16:48:48.030Z,100328.31
2022-12-25T16:51:17.309Z,100325.69
2022-12-25T16:53:44.765Z,100323.94
2022-12-25T16:56:14.845Z,100331.78
2022-12-25T16:58:42.724Z,100341.38
2022-12-25T17:01:12.009Z,100333.53
2022-12-25T17:03:39.396Z,100351.81
2022-12-25T17:06:27.031Z,100352.69
2022-12-25T17:08:57.863Z,100364.91
2022-12-25T17:11:29.592Z,100378.81
2022-12-25T17:13:57.840Z,100369.22
2022-12-25T17:16:28.428Z,100374.47
2022-12-25T17:19:04.336Z,100367.47
2022-12-25T17:21:35.232Z,100366.63
2022-12-25T17:24:04.204Z,100370.97
2022-12-25T17:26:32.612Z,100368.38
2022-12-25T17:28:59.767Z,100373.59
2022-12-25T17:31:26.834Z,100367.47
2022-12-25T17:33:54.236Z,100372.72
2022-12-25T17:36:21.977Z,100371.84
2022-12-25T17:38:49.651Z,100378.81
2022-12-25T17:41:17.745Z,100381.44
2022-12-25T17:43:45.884Z,100383.19
2022-12-25T17:46:20.604Z,100388.38
2022-12-25T17:48:47.638Z,100378.81
2022-12-25T17:51:16.676Z,100390.13
2022-12-25T17:53:45.837Z,100388.41
2022-12-25T17:56:13.609Z,100387.53
2022-12-25T17:58:40.674Z,100394.50
2022-12-25T18:01:11.573Z,100391.88
2022-12-25T18:03:38.834Z,100403.19
2022-12-25T18:06:13.473Z,100406.66
2022-12-25T18:08:41.442Z,100408.41
2022-12-25T18:11:11.163Z,100409.31
2022-12-25T18:13:38.556Z,100412.78
2022-12-25T18:16:07.326Z,100412.78
2022-12-25T18:18:35.145Z,100411.03
2022-12-25T18:21:02.481Z,100413.63
2022-12-25T18:23:29.513Z,100415.41
2022-12-25T18:25:56.727Z,100417.13
2022-12-25T18:28:24.022Z,100409.31
2022-12-25T18:30:50.734Z,100404.94
2022-12-25T18:33:17.517Z,100401.47
2022-12-25T18:35:46.231Z,100403.19
2022-12-25T18:38:13.606Z,100407.53
2022-12-25T18:40:45.342Z,100417.13
2022-12-25T18:43:13.872Z,100415.34
2022-12-25T18:45:41.455Z,100409.25
2022-12-25T18:48:09.895Z,100417.09
2022-12-25T18:50:39.501Z,100421.44
2022-12-25T18:53:07.225Z,100422.31
2022-12-25T18:55:35.573Z,100430.16
2022-12-25T18:58:02.638Z,100424.06
2022-12-25T19:00:29.556Z,100417.94
2022-12-25T19:03:00.900Z,100421.38
2022-12-25T19:05:28.188Z,100418.75
2022-12-25T19:07:54.944Z,100419.59
2022-12-25T19:10:22.121Z,100433.53
2022-12-25T19:12:49.110Z,100445.75
2022-12-25T19:15:16.386Z,100448.38
2022-12-25T19:17:43.037Z,100446.59
2022-12-25T19:20:11.167Z,100451.78
2022-12-25T19:22:37.769Z,100452.69
2022-12-25T19:25:05.166Z,100452.66
2022-12-25T19:27:31.946Z,100456.16
2022-12-25T19:29:58.999Z,100459.56
2022-12-25T19:32:25.734Z,100457.91
2022-12-25T19:34:52.695Z,100455.28
2022-12-25T19:37:19.312Z,100467.44
2022-12-25T19:39:46.927Z,100456.13
2022-12-25T19:42:16.771Z,100463.13
2022-12-25T19:44:44.243Z,100465.75
2022-12-25T19:47:11.418Z,100469.16
2022-12-25T19:49:40.668Z,100467.44
2022-12-25T19:52:07.999Z,100477.00
2022-12-25T19:54:34.990Z,100479.63
2022-12-25T19:57:01.883Z,100483.09
2022-12-25T19:59:29.060Z,100484.00
2022-12-25T20:01:55.833Z,100481.38
2022-12-25T20:04:22.828Z,100483.97
2022-12-25T20:06:49.526Z,100488.31
2022-12-25T20:09:21.283Z,100488.31
2022-12-25T20:11:49.402Z,100495.25
2022-12-25T20:14:16.909Z,100484.81
2022-12-25T20:16:44.498Z,100491.78
2022-12-25T20:19:14.799Z,100489.19
2022-12-25T20:21:41.807Z,100495.25
2022-12-25T20:24:11.164Z,100497.03
2022-12-25T20:26:39.287Z,100497.03
2022-12-25T20:29:06.386Z,100499.66
2022-12-25T20:31:35.707Z,100508.34
2022-12-25T20:34:08.412Z,100506.63
2022-12-25T20:36:37.614Z,100495.34
2022-12-25T20:39:08.711Z,100504.88
2022-12-25T20:41:35.643Z,100513.53
2022-12-25T20:44:04.175Z,100518.81
2022-12-25T20:46:31.082Z,100518.81
2022-12-25T20:48:58.153Z,100513.59
2022-12-25T20:51:25.944Z,100518.81
2022-12-25T20:53:53.737Z,100522.28
2022-12-25T20:56:23.199Z,100524.06
2022-12-25T20:58:57.585Z,100524.94
2022-12-25T21:01:24.520Z,100523.19
2022-12-25T21:03:51.813Z,100524.03
2022-12-25T21:06:23.864Z,100515.31
2022-12-25T21:08:50.688Z,100513.56
2022-12-25T21:11:18.261Z,100515.19
2022-12-25T21:13:46.354Z,100520.28
2022-12-25T21:16:17.122Z,100524.63
2022-12-25T21:18:44.425Z,100513.28
2022-12-25T21:21:11.850Z,100521.09
2022-12-25T21:23:39.981Z,100514.16
2022-12-25T21:26:11.344Z,100522.91
2022-12-25T21:28:38.318Z,100522.06
2022-12-25T21:31:07.443Z,100518.63
2022-12-25T21:33:53.146Z,100513.44
2022-12-25T21:36:27.506Z,100506.44
2022-12-25T21:39:06.561Z,100498.66
2022-12-25T21:41:35.374Z,100493.38
2022-12-25T21:44:02.466Z,100491.66
2022-12-25T21:46:29.743Z,100476.88
2022-12-25T21:48:57.351Z,100481.16
2022-12-25T21:51:45.624Z,100485.41
2022-12-25T21:54:13.867Z,100488.78
2022-12-25T21:56:44.838Z,100491.09
2022-12-25T21:59:20.173Z,100498.59
2022-12-25T22:01:47.750Z,100503.00
2022-12-25T22:04:16.151Z,100502.66
2022-12-25T22:07:01.673Z,100507.63
2022-12-25T22:09:28.702Z,100512.84
2022-12-25T22:12:15.489Z,100509.41
2022-12-25T22:14:56.339Z,100510.22
2022-12-25T22:17:49.682Z,100515.47
2022-12-25T22:20:23.690Z,100519.00
2022-12-25T22:22:50.873Z,100519.06
2022-12-25T22:25:18.113Z,100516.50
2022-12-25T22:27:46.345Z,100521.75
2022-12-25T22:30:16.325Z,100518.34
2022-12-25T22:32:43.683Z,100520.19
2022-12-25T22:35:12.471Z,100523.75
2022-12-25T22:37:40.253Z,100521.22
2022-12-25T22:40:09.027Z,100529.94
2022-12-25T22:42:35.798Z,100523.94
2022-12-25T22:45:03.624Z,100522.25
2022-12-25T22:47:30.366Z,100528.41
2022-12-25T22:49:57.103Z,100535.41
2022-12-25T22:52:24.114Z,100536.31
2022-12-25T22:54:50.798Z,100534.66
2022-12-25T22:57:17.514Z,100540.81
2022-12-25T22:59:44.495Z,100539.97
2022-12-25T23:02:11.301Z,100531.28
2022-12-25T23:04:38.146Z,100530.44
2022-12-25T23:07:05.033Z,100533.94
2022-12-25T23:09:31.868Z,100535.34
2022-12-25T23:11:59.710Z,100536.31
2022-12-25T23:14:39.924Z,100537.91
2022-12-25T23:17:30.739Z,100528.47
2022-12-25T23:20:18.463Z,100519.81
2022-12-25T23:23:05.048Z,100518.84
2022-12-25T23:25:50.458Z,100525.81
2022-12-25T23:28:40.220Z,100534.53
2022-12-25T23:31:07.493Z,100527.63
2022-12-25T23:33:34.366Z,100525.06
2022-12-25T23:36:01.165Z,100530.22
2022-12-25T23:38:28.096Z,100531.09
2022-12-25T23:40:54.786Z,100528.34
2022-12-25T23:43:21.489Z,100531.94
2022-12-25T23:45:48.220Z,100531.09
2022-12-25T23:48:15.027Z,100522.44
2022-12-25T23:50:41.955Z,100536.41
2022-12-25T23:53:10.993Z,100537.31
2022-12-25T23:55:38.056Z,100545.19
2022-12-25T23:58:05.417Z,100532.13
